sensor_id;sensor_type;location;lat;lon;timestamp;P1;durP1;ratioP1;P2;durP2;ratioP2
16792;SDS011;8513;42.662;23.350;2023-04-19T00:00:13;2.78;;;1.92;;
16792;SDS011;8513;42.662;23.350;2023-04-19T00:02:38;1.73;;;1.63;;
16792;SDS011;8513;42.662;23.350;2023-04-19T00:05:06;1.87;;;1.77;;
16792;SDS011;8513;42.662;23.350;2023-04-19T00:07:31;2.00;;;1.37;;
16792;SDS011;8513;42.662;23.350;2023-04-19T00:09:57;2.23;;;1.80;;
16792;SDS011;8513;42.662;23.350;2023-04-19T00:12:22;2.37;;;1.70;;
16792;SDS011;8513;42.662;23.350;2023-04-19T00:14:48;2.90;;;1.70;;
16792;SDS011;8513;42.662;23.350;2023-04-19T00:17:13;1.80;;;1.70;;
16792;SDS011;8513;42.662;23.350;2023-04-19T00:19:39;1.90;;;1.70;;
16792;SDS011;8513;42.662;23.350;2023-04-19T00:22:05;1.70;;;1.57;;
16792;SDS011;8513;42.662;23.350;2023-04-19T00:24:30;1.47;;;1.37;;
16792;SDS011;8513;42.662;23.350;2023-04-19T00:26:56;2.83;;;1.53;;
16792;SDS011;8513;42.662;23.350;2023-04-19T00:29:23;1.77;;;1.67;;
16792;SDS011;8513;42.662;23.350;2023-04-19T00:31:48;1.70;;;1.60;;
16792;SDS011;8513;42.662;23.350;2023-04-19T00:34:14;2.33;;;1.50;;
16792;SDS011;8513;42.662;23.350;2023-04-19T00:36:40;2.37;;;1.67;;
16792;SDS011;8513;42.662;23.350;2023-04-19T00:39:05;3.23;;;1.70;;
16792;SDS011;8513;42.662;23.350;2023-04-19T00:41:30;2.60;;;2.15;;
16792;SDS011;8513;42.662;23.350;2023-04-19T00:43:56;2.97;;;1.93;;
16792;SDS011;8513;42.662;23.350;2023-04-19T00:46:21;2.13;;;1.93;;
16792;SDS011;8513;42.662;23.350;2023-04-19T00:48:47;3.80;;;2.30;;
16792;SDS011;8513;42.662;23.350;2023-04-19T00:51:14;2.03;;;1.83;;
16792;SDS011;8513;42.662;23.350;2023-04-19T00:53:40;2.70;;;2.10;;
16792;SDS011;8513;42.662;23.350;2023-04-19T00:56:07;1.77;;;1.67;;
16792;SDS011;8513;42.662;23.350;2023-04-19T00:58:36;1.87;;;1.77;;
16792;SDS011;8513;42.662;23.350;2023-04-19T01:01:03;1.60;;;1.50;;
16792;SDS011;8513;42.662;23.350;2023-04-19T01:03:30;2.17;;;1.97;;
16792;SDS011;8513;42.662;23.350;2023-04-19T01:05:55;3.38;;;1.80;;
16792;SDS011;8513;42.662;23.350;2023-04-19T01:08:21;2.53;;;1.92;;
16792;SDS011;8513;42.662;23.350;2023-04-19T01:10:47;2.45;;;1.80;;
16792;SDS011;8513;42.662;23.350;2023-04-19T01:13:12;2.20;;;2.00;;
16792;SDS011;8513;42.662;23.350;2023-04-19T01:15:38;2.23;;;1.80;;
16792;SDS011;8513;42.662;23.350;2023-04-19T01:18:03;3.03;;;1.52;;
16792;SDS011;8513;42.662;23.350;2023-04-19T01:20:29;2.20;;;1.90;;
16792;SDS011;8513;42.662;23.350;2023-04-19T01:22:54;4.30;;;1.60;;
16792;SDS011;8513;42.662;23.350;2023-04-19T01:25:20;3.83;;;1.90;;
16792;SDS011;8513;42.662;23.350;2023-04-19T01:27:45;3.28;;;2.00;;
16792;SDS011;8513;42.662;23.350;2023-04-19T01:30:11;2.20;;;1.58;;
16792;SDS011;8513;42.662;23.350;2023-04-19T01:32:36;2.17;;;1.60;;
16792;SDS011;8513;42.662;23.350;2023-04-19T01:35:02;1.93;;;1.30;;
16792;SDS011;8513;42.662;23.350;2023-04-19T01:37:28;2.23;;;1.50;;
16792;SDS011;8513;42.662;23.350;2023-04-19T01:39:53;2.27;;;1.50;;
16792;SDS011;8513;42.662;23.350;2023-04-19T01:42:19;2.03;;;1.40;;
16792;SDS011;8513;42.662;23.350;2023-04-19T01:44:44;2.28;;;1.83;;
16792;SDS011;8513;42.662;23.350;2023-04-19T01:47:10;3.83;;;1.80;;
16792;SDS011;8513;42.662;23.350;2023-04-19T01:49:35;2.17;;;1.98;;
16792;SDS011;8513;42.662;23.350;2023-04-19T01:52:01;2.47;;;1.98;;
16792;SDS011;8513;42.662;23.350;2023-04-19T01:54:26;3.70;;;1.70;;
16792;SDS011;8513;42.662;23.350;2023-04-19T01:56:52;2.08;;;1.88;;
16792;SDS011;8513;42.662;23.350;2023-04-19T01:59:17;3.20;;;2.07;;
16792;SDS011;8513;42.662;23.350;2023-04-19T02:01:43;2.10;;;1.90;;
16792;SDS011;8513;42.662;23.350;2023-04-19T02:04:08;2.15;;;1.95;;
16792;SDS011;8513;42.662;23.350;2023-04-19T02:06:33;2.50;;;2.03;;
16792;SDS011;8513;42.662;23.350;2023-04-19T02:08:59;3.45;;;1.80;;
16792;SDS011;8513;42.662;23.350;2023-04-19T02:11:24;2.30;;;2.03;;
16792;SDS011;8513;42.662;23.350;2023-04-19T02:13:50;2.30;;;2.10;;
16792;SDS011;8513;42.662;23.350;2023-04-19T02:16:15;2.30;;;2.10;;
16792;SDS011;8513;42.662;23.350;2023-04-19T02:18:41;2.23;;;2.13;;
16792;SDS011;8513;42.662;23.350;2023-04-19T02:21:07;2.47;;;2.27;;
16792;SDS011;8513;42.662;23.350;2023-04-19T02:23:33;2.30;;;2.10;;
16792;SDS011;8513;42.662;23.350;2023-04-19T02:25:59;2.80;;;2.53;;
16792;SDS011;8513;42.662;23.350;2023-04-19T02:28:30;2.30;;;2.10;;
16792;SDS011;8513;42.662;23.350;2023-04-19T02:30:56;4.03;;;2.37;;
16792;SDS011;8513;42.662;23.350;2023-04-19T02:33:22;2.80;;;2.43;;
16792;SDS011;8513;42.662;23.350;2023-04-19T02:35:49;2.60;;;2.40;;
16792;SDS011;8513;42.662;23.350;2023-04-19T02:38:14;2.90;;;2.60;;
16792;SDS011;8513;42.662;23.350;2023-04-19T02:40:40;2.53;;;2.33;;
16792;SDS011;8513;42.662;23.350;2023-04-19T02:43:05;3.10;;;2.30;;
16792;SDS011;8513;42.662;23.350;2023-04-19T02:45:31;2.83;;;2.63;;
16792;SDS011;8513;42.662;23.350;2023-04-19T02:47:56;3.30;;;2.40;;
16792;SDS011;8513;42.662;23.350;2023-04-19T02:50:23;3.40;;;2.60;;
16792;SDS011;8513;42.662;23.350;2023-04-19T02:52:49;2.53;;;2.33;;
16792;SDS011;8513;42.662;23.350;2023-04-19T02:55:15;2.57;;;2.37;;
16792;SDS011;8513;42.662;23.350;2023-04-19T02:57:40;2.90;;;2.70;;
16792;SDS011;8513;42.662;23.350;2023-04-19T03:00:06;3.43;;;2.73;;
16792;SDS011;8513;42.662;23.350;2023-04-19T03:02:33;2.70;;;2.50;;
16792;SDS011;8513;42.662;23.350;2023-04-19T03:04:58;2.63;;;2.43;;
16792;SDS011;8513;42.662;23.350;2023-04-19T03:07:24;3.03;;;2.77;;
16792;SDS011;8513;42.662;23.350;2023-04-19T03:09:49;3.43;;;3.13;;
16792;SDS011;8513;42.662;23.350;2023-04-19T03:12:15;3.17;;;2.97;;
16792;SDS011;8513;42.662;23.350;2023-04-19T03:14:40;3.10;;;2.90;;
16792;SDS011;8513;42.662;23.350;2023-04-19T03:17:06;3.63;;;3.33;;
16792;SDS011;8513;42.662;23.350;2023-04-19T03:19:31;3.50;;;3.20;;
16792;SDS011;8513;42.662;23.350;2023-04-19T03:21:57;3.67;;;3.27;;
16792;SDS011;8513;42.662;23.350;2023-04-19T03:24:26;3.40;;;3.10;;
16792;SDS011;8513;42.662;23.350;2023-04-19T03:26:53;3.80;;;3.40;;
16792;SDS011;8513;42.662;23.350;2023-04-19T03:29:19;3.87;;;3.57;;
16792;SDS011;8513;42.662;23.350;2023-04-19T03:31:44;3.57;;;3.27;;
16792;SDS011;8513;42.662;23.350;2023-04-19T03:34:10;3.77;;;3.47;;
16792;SDS011;8513;42.662;23.350;2023-04-19T03:36:35;4.67;;;3.67;;
16792;SDS011;8513;42.662;23.350;2023-04-19T03:39:01;4.00;;;3.10;;
16792;SDS011;8513;42.662;23.350;2023-04-19T03:41:27;3.30;;;3.03;;
16792;SDS011;8513;42.662;23.350;2023-04-19T03:43:53;5.00;;;3.70;;
16792;SDS011;8513;42.662;23.350;2023-04-19T03:46:18;3.97;;;3.67;;
16792;SDS011;8513;42.662;23.350;2023-04-19T03:48:44;3.77;;;3.40;;
16792;SDS011;8513;42.662;23.350;2023-04-19T03:51:09;4.17;;;3.73;;
16792;SDS011;8513;42.662;23.350;2023-04-19T03:53:35;3.57;;;3.27;;
16792;SDS011;8513;42.662;23.350;2023-04-19T03:56:01;4.07;;;3.77;;
16792;SDS011;8513;42.662;23.350;2023-04-19T03:58:26;3.57;;;3.27;;
16792;SDS011;8513;42.662;23.350;2023-04-19T04:00:52;3.43;;;3.13;;
16792;SDS011;8513;42.662;23.350;2023-04-19T04:03:17;3.63;;;3.33;;
16792;SDS011;8513;42.662;23.350;2023-04-19T04:05:43;3.73;;;3.20;;
16792;SDS011;8513;42.662;23.350;2023-04-19T04:08:09;3.87;;;3.57;;
16792;SDS011;8513;42.662;23.350;2023-04-19T04:10:34;3.47;;;3.17;;
16792;SDS011;8513;42.662;23.350;2023-04-19T04:12:59;3.77;;;3.47;;
16792;SDS011;8513;42.662;23.350;2023-04-19T04:15:25;3.40;;;3.10;;
16792;SDS011;8513;42.662;23.350;2023-04-19T04:17:50;3.97;;;3.67;;
16792;SDS011;8513;42.662;23.350;2023-04-19T04:20:16;3.13;;;2.93;;
16792;SDS011;8513;42.662;23.350;2023-04-19T04:22:41;3.67;;;3.37;;
16792;SDS011;8513;42.662;23.350;2023-04-19T04:25:08;3.73;;;3.43;;
16792;SDS011;8513;42.662;23.350;2023-04-19T04:27:34;4.53;;;3.50;;
16792;SDS011;8513;42.662;23.350;2023-04-19T04:30:00;4.87;;;3.27;;
16792;SDS011;8513;42.662;23.350;2023-04-19T04:32:25;3.37;;;3.17;;
16792;SDS011;8513;42.662;23.350;2023-04-19T04:34:51;3.30;;;3.10;;
16792;SDS011;8513;42.662;23.350;2023-04-19T04:37:17;3.50;;;3.17;;
16792;SDS011;8513;42.662;23.350;2023-04-19T04:39:42;3.80;;;3.50;;
16792;SDS011;8513;42.662;23.350;2023-04-19T04:42:08;4.03;;;3.50;;
16792;SDS011;8513;42.662;23.350;2023-04-19T04:44:34;5.30;;;3.50;;
16792;SDS011;8513;42.662;23.350;2023-04-19T04:47:06;5.13;;;3.73;;
16792;SDS011;8513;42.662;23.350;2023-04-19T04:49:31;3.80;;;3.50;;
16792;SDS011;8513;42.662;23.350;2023-04-19T04:51:56;4.13;;;3.83;;
16792;SDS011;8513;42.662;23.350;2023-04-19T04:54:22;5.60;;;3.97;;
16792;SDS011;8513;42.662;23.350;2023-04-19T04:56:48;4.03;;;3.57;;
16792;SDS011;8513;42.662;23.350;2023-04-19T04:59:13;4.73;;;4.20;;
16792;SDS011;8513;42.662;23.350;2023-04-19T05:01:39;4.40;;;4.10;;
16792;SDS011;8513;42.662;23.350;2023-04-19T05:04:05;4.60;;;4.00;;
16792;SDS011;8513;42.662;23.350;2023-04-19T05:06:30;4.27;;;3.87;;
16792;SDS011;8513;42.662;23.350;2023-04-19T05:08:56;4.43;;;3.70;;
16792;SDS011;8513;42.662;23.350;2023-04-19T05:11:21;4.37;;;3.97;;
16792;SDS011;8513;42.662;23.350;2023-04-19T05:13:46;4.80;;;4.40;;
16792;SDS011;8513;42.662;23.350;2023-04-19T05:16:12;4.33;;;3.93;;
16792;SDS011;8513;42.662;23.350;2023-04-19T05:18:37;5.80;;;4.30;;
16792;SDS011;8513;42.662;23.350;2023-04-19T05:21:03;4.40;;;4.00;;
16792;SDS011;8513;42.662;23.350;2023-04-19T05:23:28;5.43;;;4.20;;
16792;SDS011;8513;42.662;23.350;2023-04-19T05:25:54;5.17;;;4.67;;
16792;SDS011;8513;42.662;23.350;2023-04-19T05:28:19;4.53;;;4.23;;
16792;SDS011;8513;42.662;23.350;2023-04-19T05:30:45;5.40;;;4.90;;
16792;SDS011;8513;42.662;23.350;2023-04-19T05:33:10;5.43;;;4.10;;
16792;SDS011;8513;42.662;23.350;2023-04-19T05:35:36;7.30;;;4.63;;
16792;SDS011;8513;42.662;23.350;2023-04-19T05:38:01;5.97;;;4.43;;
16792;SDS011;8513;42.662;23.350;2023-04-19T05:40:27;6.55;;;4.68;;
16792;SDS011;8513;42.662;23.350;2023-04-19T05:42:53;5.50;;;4.20;;
16792;SDS011;8513;42.662;23.350;2023-04-19T05:45:20;5.87;;;3.97;;
16792;SDS011;8513;42.662;23.350;2023-04-19T05:47:46;4.87;;;4.40;;
16792;SDS011;8513;42.662;23.350;2023-04-19T05:50:11;4.77;;;4.37;;
16792;SDS011;8513;42.662;23.350;2023-04-19T05:52:38;5.17;;;4.40;;
16792;SDS011;8513;42.662;23.350;2023-04-19T05:55:04;4.72;;;4.30;;
16792;SDS011;8513;42.662;23.350;2023-04-19T05:57:30;4.80;;;4.40;;
16792;SDS011;8513;42.662;23.350;2023-04-19T05:59:56;4.70;;;4.30;;
16792;SDS011;8513;42.662;23.350;2023-04-19T06:02:21;5.03;;;4.63;;
16792;SDS011;8513;42.662;23.350;2023-04-19T06:04:47;5.13;;;4.63;;
16792;SDS011;8513;42.662;23.350;2023-04-19T06:07:13;5.57;;;4.43;;
16792;SDS011;8513;42.662;23.350;2023-04-19T06:09:38;4.40;;;4.00;;
16792;SDS011;8513;42.662;23.350;2023-04-19T06:12:04;5.57;;;5.03;;
16792;SDS011;8513;42.662;23.350;2023-04-19T06:14:29;5.00;;;4.57;;
16792;SDS011;8513;42.662;23.350;2023-04-19T06:16:55;4.50;;;4.13;;
16792;SDS011;8513;42.662;23.350;2023-04-19T06:19:21;6.63;;;4.43;;
16792;SDS011;8513;42.662;23.350;2023-04-19T06:21:46;4.87;;;4.47;;
16792;SDS011;8513;42.662;23.350;2023-04-19T06:24:12;5.47;;;4.60;;
16792;SDS011;8513;42.662;23.350;2023-04-19T06:26:37;5.07;;;4.57;;
16792;SDS011;8513;42.662;23.350;2023-04-19T06:29:02;5.68;;;5.18;;
16792;SDS011;8513;42.662;23.350;2023-04-19T06:31:28;4.72;;;4.32;;
16792;SDS011;8513;42.662;23.350;2023-04-19T06:33:54;5.07;;;4.57;;
16792;SDS011;8513;42.662;23.350;2023-04-19T06:36:19;5.60;;;4.87;;
16792;SDS011;8513;42.662;23.350;2023-04-19T06:38:45;4.57;;;4.10;;
16792;SDS011;8513;42.662;23.350;2023-04-19T06:41:10;4.63;;;4.22;;
16792;SDS011;8513;42.662;23.350;2023-04-19T06:43:36;5.07;;;4.57;;
16792;SDS011;8513;42.662;23.350;2023-04-19T06:46:03;4.72;;;4.32;;
16792;SDS011;8513;42.662;23.350;2023-04-19T06:48:29;4.83;;;4.33;;
16792;SDS011;8513;42.662;23.350;2023-04-19T06:50:55;4.03;;;3.73;;
16792;SDS011;8513;42.662;23.350;2023-04-19T06:53:21;4.13;;;3.70;;
16792;SDS011;8513;42.662;23.350;2023-04-19T06:55:46;4.18;;;3.78;;
16792;SDS011;8513;42.662;23.350;2023-04-19T06:58:12;4.43;;;4.03;;
16792;SDS011;8513;42.662;23.350;2023-04-19T07:00:37;6.35;;;4.63;;
16792;SDS011;8513;42.662;23.350;2023-04-19T07:03:03;4.70;;;4.22;;
16792;SDS011;8513;42.662;23.350;2023-04-19T07:05:28;3.90;;;3.60;;
16792;SDS011;8513;42.662;23.350;2023-04-19T07:07:55;3.97;;;3.63;;
16792;SDS011;8513;42.662;23.350;2023-04-19T07:10:20;3.65;;;3.35;;
16792;SDS011;8513;42.662;23.350;2023-04-19T07:12:46;4.28;;;3.78;;
16792;SDS011;8513;42.662;23.350;2023-04-19T07:15:12;3.88;;;3.58;;
16792;SDS011;8513;42.662;23.350;2023-04-19T07:17:37;4.45;;;4.05;;
16792;SDS011;8513;42.662;23.350;2023-04-19T07:20:03;7.03;;;4.28;;
16792;SDS011;8513;42.662;23.350;2023-04-19T07:22:30;3.78;;;3.47;;
16792;SDS011;8513;42.662;23.350;2023-04-19T07:24:56;5.03;;;3.75;;
16792;SDS011;8513;42.662;23.350;2023-04-19T07:27:22;3.88;;;3.58;;
16792;SDS011;8513;42.662;23.350;2023-04-19T07:29:48;4.20;;;3.80;;
16792;SDS011;8513;42.662;23.350;2023-04-19T07:32:13;4.45;;;3.95;;
16792;SDS011;8513;42.662;23.350;2023-04-19T07:34:39;4.28;;;3.58;;
16792;SDS011;8513;42.662;23.350;2023-04-19T07:37:05;3.95;;;3.65;;
16792;SDS011;8513;42.662;23.350;2023-04-19T07:39:31;4.00;;;3.60;;
16792;SDS011;8513;42.662;23.350;2023-04-19T07:41:57;4.30;;;3.90;;
16792;SDS011;8513;42.662;23.350;2023-04-19T07:44:22;7.75;;;7.05;;
16792;SDS011;8513;42.662;23.350;2023-04-19T07:46:48;3.65;;;3.35;;
16792;SDS011;8513;42.662;23.350;2023-04-19T07:49:14;3.30;;;3.00;;
16792;SDS011;8513;42.662;23.350;2023-04-19T07:51:39;3.97;;;3.60;;
16792;SDS011;8513;42.662;23.350;2023-04-19T07:54:05;5.53;;;3.90;;
16792;SDS011;8513;42.662;23.350;2023-04-19T07:56:31;5.15;;;3.30;;
16792;SDS011;8513;42.662;23.350;2023-04-19T07:58:57;3.70;;;3.40;;
16792;SDS011;8513;42.662;23.350;2023-04-19T08:01:24;3.93;;;3.27;;
16792;SDS011;8513;42.662;23.350;2023-04-19T08:03:49;4.17;;;3.80;;
16792;SDS011;8513;42.662;23.350;2023-04-19T08:06:15;4.73;;;3.63;;
16792;SDS011;8513;42.662;23.350;2023-04-19T08:08:41;4.30;;;3.53;;
16792;SDS011;8513;42.662;23.350;2023-04-19T08:11:07;4.45;;;3.60;;
16792;SDS011;8513;42.662;23.350;2023-04-19T08:13:32;3.27;;;2.90;;
16792;SDS011;8513;42.662;23.350;2023-04-19T08:15:58;3.85;;;3.40;;
16792;SDS011;8513;42.662;23.350;2023-04-19T08:18:24;4.68;;;4.10;;
16792;SDS011;8513;42.662;23.350;2023-04-19T08:20:49;5.13;;;3.90;;
16792;SDS011;8513;42.662;23.350;2023-04-19T08:23:14;3.53;;;3.08;;
16792;SDS011;8513;42.662;23.350;2023-04-19T08:25:41;4.80;;;4.15;;
16792;SDS011;8513;42.662;23.350;2023-04-19T08:28:06;4.68;;;3.58;;
16792;SDS011;8513;42.662;23.350;2023-04-19T08:30:32;3.70;;;3.40;;
16792;SDS011;8513;42.662;23.350;2023-04-19T08:32:57;3.63;;;3.33;;
16792;SDS011;8513;42.662;23.350;2023-04-19T08:35:23;3.80;;;3.08;;
16792;SDS011;8513;42.662;23.350;2023-04-19T08:37:49;6.03;;;3.90;;
16792;SDS011;8513;42.662;23.350;2023-04-19T08:40:15;4.07;;;3.65;;
16792;SDS011;8513;42.662;23.350;2023-04-19T08:42:41;6.32;;;3.60;;
16792;SDS011;8513;42.662;23.350;2023-04-19T08:45:07;3.78;;;3.42;;
16792;SDS011;8513;42.662;23.350;2023-04-19T08:47:35;5.85;;;3.45;;
16792;SDS011;8513;42.662;23.350;2023-04-19T08:50:02;3.95;;;3.65;;
16792;SDS011;8513;42.662;23.350;2023-04-19T08:52:29;6.65;;;4.35;;
16792;SDS011;8513;42.662;23.350;2023-04-19T08:55:00;6.30;;;3.78;;
16792;SDS011;8513;42.662;23.350;2023-04-19T08:57:30;4.80;;;3.63;;
16792;SDS011;8513;42.662;23.350;2023-04-19T08:59:56;4.80;;;3.65;;
16792;SDS011;8513;42.662;23.350;2023-04-19T09:02:23;3.90;;;3.50;;
16792;SDS011;8513;42.662;23.350;2023-04-19T09:04:48;3.35;;;3.05;;
16792;SDS011;8513;42.662;23.350;2023-04-19T09:07:24;3.38;;;3.08;;
16792;SDS011;8513;42.662;23.350;2023-04-19T09:10:10;3.95;;;3.63;;
16792;SDS011;8513;42.662;23.350;2023-04-19T09:12:37;3.92;;;2.88;;
16792;SDS011;8513;42.662;23.350;2023-04-19T09:15:04;3.53;;;2.65;;
16792;SDS011;8513;42.662;23.350;2023-04-19T09:17:32;2.95;;;2.45;;
16792;SDS011;8513;42.662;23.350;2023-04-19T09:19:58;3.28;;;2.97;;
16792;SDS011;8513;42.662;23.350;2023-04-19T09:22:24;3.13;;;2.83;;
16792;SDS011;8513;42.662;23.350;2023-04-19T09:24:50;2.90;;;2.58;;
16792;SDS011;8513;42.662;23.350;2023-04-19T09:27:21;2.70;;;2.45;;
16792;SDS011;8513;42.662;23.350;2023-04-19T09:29:57;2.60;;;2.40;;
16792;SDS011;8513;42.662;23.350;2023-04-19T09:32:24;3.97;;;2.55;;
16792;SDS011;8513;42.662;23.350;2023-04-19T09:34:54;4.13;;;3.60;;
16792;SDS011;8513;42.662;23.350;2023-04-19T09:37:24;2.70;;;2.50;;
16792;SDS011;8513;42.662;23.350;2023-04-19T09:39:51;2.40;;;2.22;;
16792;SDS011;8513;42.662;23.350;2023-04-19T09:42:17;2.60;;;2.33;;
16792;SDS011;8513;42.662;23.350;2023-04-19T09:44:57;2.72;;;2.15;;
16792;SDS011;8513;42.662;23.350;2023-04-19T09:47:23;2.63;;;1.95;;
16792;SDS011;8513;42.662;23.350;2023-04-19T09:50:06;3.00;;;2.70;;
16792;SDS011;8513;42.662;23.350;2023-04-19T09:52:33;2.88;;;2.63;;
16792;SDS011;8513;42.662;23.350;2023-04-19T09:54:59;2.47;;;2.28;;
16792;SDS011;8513;42.662;23.350;2023-04-19T09:57:26;3.38;;;2.10;;
16792;SDS011;8513;42.662;23.350;2023-04-19T09:59:51;2.75;;;2.05;;
16792;SDS011;8513;42.662;23.350;2023-04-19T10:02:17;2.75;;;1.88;;
16792;SDS011;8513;42.662;23.350;2023-04-19T10:04:44;2.45;;;2.25;;
16792;SDS011;8513;42.662;23.350;2023-04-19T10:07:10;2.75;;;2.25;;
16792;SDS011;8513;42.662;23.350;2023-04-19T10:09:36;4.00;;;2.55;;
16792;SDS011;8513;42.662;23.350;2023-04-19T10:12:02;2.00;;;1.90;;
16792;SDS011;8513;42.662;23.350;2023-04-19T10:14:29;2.53;;;2.33;;
16792;SDS011;8513;42.662;23.350;2023-04-19T10:17:00;2.17;;;1.98;;
16792;SDS011;8513;42.662;23.350;2023-04-19T10:19:26;2.72;;;2.20;;
16792;SDS011;8513;42.662;23.350;2023-04-19T10:21:52;2.63;;;1.98;;
16792;SDS011;8513;42.662;23.350;2023-04-19T10:24:20;2.58;;;2.35;;
16792;SDS011;8513;42.662;23.350;2023-04-19T10:32:20;2.95;;;2.60;;
16792;SDS011;8513;42.662;23.350;2023-04-19T10:34:46;3.08;;;2.78;;
16792;SDS011;8513;42.662;23.350;2023-04-19T10:37:14;3.15;;;2.88;;
16792;SDS011;8513;42.662;23.350;2023-04-19T10:39:41;3.13;;;2.78;;
16792;SDS011;8513;42.662;23.350;2023-04-19T10:42:07;2.45;;;2.22;;
16792;SDS011;8513;42.662;23.350;2023-04-19T10:44:33;2.92;;;2.72;;
16792;SDS011;8513;42.662;23.350;2023-04-19T10:46:59;2.83;;;2.33;;
16792;SDS011;8513;42.662;23.350;2023-04-19T10:49:25;2.30;;;2.00;;
16792;SDS011;8513;42.662;23.350;2023-04-19T10:51:52;3.25;;;2.33;;
16792;SDS011;8513;42.662;23.350;2023-04-19T10:57:02;2.10;;;2.00;;
16792;SDS011;8513;42.662;23.350;2023-04-19T10:59:32;2.10;;;1.90;;
16792;SDS011;8513;42.662;23.350;2023-04-19T11:01:59;2.22;;;2.00;;
16792;SDS011;8513;42.662;23.350;2023-04-19T11:09:33;2.70;;;2.50;;
16792;SDS011;8513;42.662;23.350;2023-04-19T11:12:04;4.50;;;3.20;;
16792;SDS011;8513;42.662;23.350;2023-04-19T11:14:35;2.97;;;2.67;;
16792;SDS011;8513;42.662;23.350;2023-04-19T11:17:12;3.17;;;2.65;;
16792;SDS011;8513;42.662;23.350;2023-04-19T11:22:23;2.78;;;2.58;;
16792;SDS011;8513;42.662;23.350;2023-04-19T11:27:31;4.15;;;2.20;;
16792;SDS011;8513;42.662;23.350;2023-04-19T11:30:04;2.90;;;2.60;;
16792;SDS011;8513;42.662;23.350;2023-04-19T11:32:31;2.72;;;2.53;;
16792;SDS011;8513;42.662;23.350;2023-04-19T11:34:57;3.03;;;2.72;;
16792;SDS011;8513;42.662;23.350;2023-04-19T11:37:31;4.75;;;2.50;;
16792;SDS011;8513;42.662;23.350;2023-04-19T11:39:57;3.38;;;2.50;;
16792;SDS011;8513;42.662;23.350;2023-04-19T11:42:23;2.47;;;2.28;;
16792;SDS011;8513;42.662;23.350;2023-04-19T11:44:49;3.15;;;2.05;;
16792;SDS011;8513;42.662;23.350;2023-04-19T11:47:15;1.95;;;1.85;;
16792;SDS011;8513;42.662;23.350;2023-04-19T11:49:41;2.40;;;2.00;;
16792;SDS011;8513;42.662;23.350;2023-04-19T11:52:07;2.75;;;1.83;;
16792;SDS011;8513;42.662;23.350;2023-04-19T11:54:32;2.00;;;1.83;;
16792;SDS011;8513;42.662;23.350;2023-04-19T11:57:02;2.10;;;1.90;;
16792;SDS011;8513;42.662;23.350;2023-04-19T11:59:29;2.33;;;2.00;;
16792;SDS011;8513;42.662;23.350;2023-04-19T12:02:09;2.10;;;2.00;;
16792;SDS011;8513;42.662;23.350;2023-04-19T12:04:36;1.83;;;1.70;;
16792;SDS011;8513;42.662;23.350;2023-04-19T12:07:02;2.13;;;1.90;;
16792;SDS011;8513;42.662;23.350;2023-04-19T12:09:28;2.42;;;1.52;;
16792;SDS011;8513;42.662;23.350;2023-04-19T12:11:58;1.60;;;1.50;;
16792;SDS011;8513;42.662;23.350;2023-04-19T12:14:23;1.42;;;1.33;;
16792;SDS011;8513;42.662;23.350;2023-04-19T12:19:33;1.75;;;1.55;;
16792;SDS011;8513;42.662;23.350;2023-04-19T12:22:07;2.55;;;1.70;;
16792;SDS011;8513;42.662;23.350;2023-04-19T12:24:37;2.58;;;1.60;;
16792;SDS011;8513;42.662;23.350;2023-04-19T12:27:03;1.35;;;1.25;;
16792;SDS011;8513;42.662;23.350;2023-04-19T12:29:30;1.80;;;1.70;;
16792;SDS011;8513;42.662;23.350;2023-04-19T12:31:55;1.92;;;1.58;;
16792;SDS011;8513;42.662;23.350;2023-04-19T12:34:20;3.38;;;2.35;;
16792;SDS011;8513;42.662;23.350;2023-04-19T12:36:46;2.38;;;1.95;;
16792;SDS011;8513;42.662;23.350;2023-04-19T12:39:11;2.75;;;2.55;;
16792;SDS011;8513;42.662;23.350;2023-04-19T12:41:37;2.22;;;2.03;;
16792;SDS011;8513;42.662;23.350;2023-04-19T12:44:02;3.22;;;2.35;;
16792;SDS011;8513;42.662;23.350;2023-04-19T12:46:28;1.70;;;1.60;;
16792;SDS011;8513;42.662;23.350;2023-04-19T12:48:53;2.50;;;2.30;;
16792;SDS011;8513;42.662;23.350;2023-04-19T12:51:19;4.03;;;2.10;;
16792;SDS011;8513;42.662;23.350;2023-04-19T12:53:47;2.33;;;2.13;;
16792;SDS011;8513;42.662;23.350;2023-04-19T12:56:13;2.88;;;2.60;;
16792;SDS011;8513;42.662;23.350;2023-04-19T12:58:41;3.00;;;2.80;;
16792;SDS011;8513;42.662;23.350;2023-04-19T13:01:06;3.47;;;3.25;;
16792;SDS011;8513;42.662;23.350;2023-04-19T13:03:32;3.92;;;3.25;;
16792;SDS011;8513;42.662;23.350;2023-04-19T13:06:00;5.07;;;4.68;;
16792;SDS011;8513;42.662;23.350;2023-04-19T13:08:26;6.22;;;5.68;;
16792;SDS011;8513;42.662;23.350;2023-04-19T13:10:52;3.90;;;2.90;;
16792;SDS011;8513;42.662;23.350;2023-04-19T13:13:17;3.42;;;2.40;;
16792;SDS011;8513;42.662;23.350;2023-04-19T13:15:42;3.75;;;2.42;;
16792;SDS011;8513;42.662;23.350;2023-04-19T13:18:09;1.90;;;1.80;;
16792;SDS011;8513;42.662;23.350;2023-04-19T13:20:35;2.13;;;1.95;;
16792;SDS011;8513;42.662;23.350;2023-04-19T13:23:00;1.55;;;1.45;;
16792;SDS011;8513;42.662;23.350;2023-04-19T13:25:25;1.95;;;1.73;;
16792;SDS011;8513;42.662;23.350;2023-04-19T13:27:51;2.50;;;2.30;;
16792;SDS011;8513;42.662;23.350;2023-04-19T13:30:16;3.00;;;1.92;;
16792;SDS011;8513;42.662;23.350;2023-04-19T13:32:42;1.65;;;1.48;;
16792;SDS011;8513;42.662;23.350;2023-04-19T13:35:07;1.38;;;1.27;;
16792;SDS011;8513;42.662;23.350;2023-04-19T13:37:33;2.42;;;1.42;;
16792;SDS011;8513;42.662;23.350;2023-04-19T13:39:59;2.78;;;1.50;;
16792;SDS011;8513;42.662;23.350;2023-04-19T13:42:24;1.70;;;1.60;;
16792;SDS011;8513;42.662;23.350;2023-04-19T13:44:49;2.35;;;1.90;;
16792;SDS011;8513;42.662;23.350;2023-04-19T13:47:15;1.95;;;1.27;;
16792;SDS011;8513;42.662;23.350;2023-04-19T13:49:40;1.70;;;1.60;;
16792;SDS011;8513;42.662;23.350;2023-04-19T13:52:06;2.63;;;1.70;;
16792;SDS011;8513;42.662;23.350;2023-04-19T13:54:31;2.20;;;1.40;;
16792;SDS011;8513;42.662;23.350;2023-04-19T13:56:57;2.00;;;1.80;;
16792;SDS011;8513;42.662;23.350;2023-04-19T13:59:22;2.13;;;1.70;;
16792;SDS011;8513;42.662;23.350;2023-04-19T14:01:50;2.25;;;2.08;;
16792;SDS011;8513;42.662;23.350;2023-04-19T14:04:15;3.92;;;2.42;;
16792;SDS011;8513;42.662;23.350;2023-04-19T14:06:41;2.35;;;2.00;;
16792;SDS011;8513;42.662;23.350;2023-04-19T14:09:07;1.52;;;1.42;;
16792;SDS011;8513;42.662;23.350;2023-04-19T14:11:32;2.75;;;1.65;;
16792;SDS011;8513;42.662;23.350;2023-04-19T14:13:58;3.05;;;1.63;;
16792;SDS011;8513;42.662;23.350;2023-04-19T14:16:23;3.85;;;3.05;;
16792;SDS011;8513;42.662;23.350;2023-04-19T14:18:49;3.75;;;2.45;;
16792;SDS011;8513;42.662;23.350;2023-04-19T14:21:15;1.75;;;1.65;;
16792;SDS011;8513;42.662;23.350;2023-04-19T14:23:40;1.90;;;1.80;;
16792;SDS011;8513;42.662;23.350;2023-04-19T14:26:06;3.38;;;2.40;;
16792;SDS011;8513;42.662;23.350;2023-04-19T14:28:31;3.65;;;1.95;;
16792;SDS011;8513;42.662;23.350;2023-04-19T14:30:57;3.95;;;2.10;;
16792;SDS011;8513;42.662;23.350;2023-04-19T14:33:22;2.28;;;1.90;;
16792;SDS011;8513;42.662;23.350;2023-04-19T14:35:48;2.58;;;2.38;;
16792;SDS011;8513;42.662;23.350;2023-04-19T14:38:13;3.00;;;2.35;;
16792;SDS011;8513;42.662;23.350;2023-04-19T14:40:38;3.38;;;2.17;;
16792;SDS011;8513;42.662;23.350;2023-04-19T14:43:04;3.10;;;2.47;;
16792;SDS011;8513;42.662;23.350;2023-04-19T14:45:29;4.30;;;2.47;;
16792;SDS011;8513;42.662;23.350;2023-04-19T14:47:55;6.10;;;2.53;;
16792;SDS011;8513;42.662;23.350;2023-04-19T14:50:20;4.30;;;2.58;;
16792;SDS011;8513;42.662;23.350;2023-04-19T14:52:46;3.53;;;2.85;;
16792;SDS011;8513;42.662;23.350;2023-04-19T14:55:11;2.67;;;2.47;;
16792;SDS011;8513;42.662;23.350;2023-04-19T14:57:37;3.15;;;2.30;;
16792;SDS011;8513;42.662;23.350;2023-04-19T15:00:02;3.60;;;2.30;;
16792;SDS011;8513;42.662;23.350;2023-04-19T15:02:29;5.28;;;3.20;;